Flight Track Log - Related Links

Times and Time Zones

All times are in EDT time to prevent confusion due to time zone crossing. See the UCA3596 flight status page for this flight to view local times or setup timezone preferences in your user account.

Time Position Orientation Groundspeed Altitude Reporting Facility
EDT Latitude Longitude Course Direction KTS MPH feet Rate Location/Type
Mon 02:46:50 PM 42.1433 -76.0008 211° Southwest 187 215 3,600  Level New York Center
Mon 02:47:50 PM 42.1039 -76.0453 220° Southwest 187 215 5,000 1,350 Climbing New York Center
Mon 02:48:50 PM 42.0606 -76.0867 215° Southwest 187 215 6,300 1,350 Climbing New York Center
Mon 02:49:50 PM 42.0125 -76.1331 216° Southwest 192 221 7,700 1,300 Climbing New York Center
Mon 02:50:50 PM 41.9692 -76.1742 215° Southwest 192 221 8,900 1,200 Climbing New York Center
Mon 02:51:00 PM 41.8213 -76.1636 211° Southwest  Level Estimated
Mon 02:51:50 PM 41.9319 -76.2100 216° Southwest 192 221 10,100  Level New York Center
Mon 02:52:50 PM 41.8819 -76.2561 214° Southwest 192 221 11,500 1,350 Climbing New York Center
Mon 02:53:50 PM 41.8386 -76.2969 215° Southwest 197 227 12,800 1,100 Climbing New York Center
Mon 02:54:50 PM 41.7947 -76.3436 218° Southwest 202 232 13,700 1,000 Climbing New York Center
Mon 02:55:50 PM 41.7533 -76.3817 214° Southwest 202 232 14,800 1,050 Climbing New York Center
Mon 02:56:50 PM 41.7056 -76.4250 214° Southwest 202 232 15,800 600 Climbing New York Center
Mon 02:57:50 PM 41.6486 -76.4811 216° Southwest 219 252 16,000 100 Climbing New York Center
Mon 02:58:50 PM 41.5939 -76.5347 216° Southwest 243 280 16,000  Level New York Center
Mon 02:59:50 PM 41.5331 -76.5906 214° Southwest 261 300 16,000  Level New York Center
Mon 03:00:50 PM 41.4783 -76.6439 216° Southwest 267 307 16,000  Level New York Center
Mon 03:01:50 PM 41.4125 -76.7075 216° Southwest 267 307 16,000  Level New York Center
Mon 03:02:50 PM 41.3536 -76.7631 215° Southwest 267 307 16,000  Level New York Center
Mon 03:03:50 PM 41.2833 -76.7900 196° South 267 307 16,000  Level New York Center
Mon 03:04:50 PM 41.2097 -76.8056 189° South 267 307 16,000  Level New York Center
Mon 03:05:50 PM 41.1342 -76.8181 187° South 267 307 16,000  Level New York Center
Mon 03:06:50 PM 41.0603 -76.8333 189° South 277 319 16,000  Level New York Center
Mon 03:07:50 PM 40.9844 -76.8486 189° South 277 319 16,000  Level New York Center
Mon 03:08:50 PM 40.9108 -76.8614 187° South 277 319 16,000  Level New York Center
Mon 03:09:50 PM 40.8456 -76.8747 189° South 277 319 16,000  Level New York Center
Mon 03:10:50 PM 40.7614 -76.8919 189° South 277 319 16,000  Level New York Center
Mon 03:11:50 PM 40.6978 -76.9136 194° South 277 319 16,000  Level New York Center
Mon 03:12:50 PM 40.6153 -76.9389 193° South 277 319 16,000  Level New York Center
Mon 03:13:50 PM 40.5494 -76.9603 194° South 277 319 16,000  Level New York Center
Mon 03:14:50 PM 40.4689 -76.9858 194° South 277 319 16,000  Level New York Center
Mon 03:15:50 PM 40.4011 -77.0044 192° South 277 319 16,000  Level New York Center
Mon 03:16:50 PM 40.3206 -77.0325 195° South 277 319 16,000 -102 Level New York Center
Mon 03:18:46 PM 40.1833 -77.0667 191° South 278 320 15,700 -545 Descending Potomac TRACON
Mon 03:19:46 PM 40.1000 -77.1000 197° South 290 334 14,400 -1,300 Descending Potomac TRACON
Mon 03:20:46 PM 40.0167 -77.1167 189° South 289 333 13,100 -1,150 Descending Potomac TRACON
Mon 03:21:46 PM 39.9500 -77.1500 201° Southwest 280 322 12,100 -1,100 Descending Potomac TRACON
Mon 03:22:46 PM 39.8667 -77.1833 197° South 279 321 10,900 -1,263 Descending Potomac TRACON
Mon 03:23:40 PM 39.8167 -77.2167 207° Southwest 277 319 9,700 -950 Descending Potomac TRACON
Mon 03:24:46 PM 39.7333 -77.2667 205° Southwest 266 306 9,000 -347 Descending Potomac TRACON
Mon 03:25:41 PM 39.6667 -77.2667 180° South 257 296 9,000 -522 Level Potomac TRACON
Mon 03:26:41 PM 39.6000 -77.2833 191° South 271 312 8,000 -1,000 Descending Potomac TRACON
Mon 03:27:41 PM 39.5167 -77.3000 189° South 273 314 7,000 -1,000 Descending Potomac TRACON
Mon 03:28:41 PM 39.4500 -77.3167 191° South 268 308 6,000 -1,000 Descending Potomac TRACON
Mon 03:29:35 PM 39.3833 -77.3167 180° South 270 311 5,100 -1,000 Descending Potomac TRACON
Mon 03:30:35 PM 39.3000 -77.3333 189° South 270 311 4,100 -545 Descending Potomac TRACON
Mon 03:31:36 PM 39.2333 -77.3500 191° South 257 296 4,000 -198 Descending Potomac TRACON
Mon 03:32:36 PM 39.1667 -77.3500 180° South 257 296 3,700 -500 Descending Potomac TRACON
Mon 03:33:36 PM 39.1000 -77.3500 180° South 253 291 3,000 -368 Descending Potomac TRACON
Mon 03:34:30 PM 39.0333 -77.3500 180° South 239 275 3,000  Level Potomac TRACON
Mon 03:35:30 PM 38.9667 -77.3500 180° South 245 282 3,000  Level Potomac TRACON
Mon 03:36:30 PM 38.9000 -77.3500 180° South 247 284 3,000 -347 Level Potomac TRACON
Mon 03:37:31 PM 38.8333 -77.3667 191° South 213 245 2,300 -545 Descending Potomac TRACON
Mon 03:38:31 PM 38.8167 -77.4000 237° Southwest 188 216 1,900 -350 Descending Potomac TRACON
Mon 03:39:31 PM 38.8667 -77.4333 333° Northwest 154 177 1,600 -500 Descending Potomac TRACON
Mon 03:40:31 PM 38.9000 -77.4333 360° North 115 132 900 -700 Descending Potomac TRACON

Login

Don't have an account? Register now (free) for customized features, flight alerts, and more!